sensor_id;sensor_type;location;lat;lon;timestamp;temperature;humidity
7077;DHT22;3579;48.956;9.154;2023-11-21T00:01:54;17.50;65.50
7077;DHT22;3579;48.956;9.154;2023-11-21T00:04:20;17.40;65.50
7077;DHT22;3579;48.956;9.154;2023-11-21T00:06:47;17.40;65.50
7077;DHT22;3579;48.956;9.154;2023-11-21T00:09:14;17.40;65.50
7077;DHT22;3579;48.956;9.154;2023-11-21T00:11:44;17.40;65.50
7077;DHT22;3579;48.956;9.154;2023-11-21T00:14:11;17.40;65.50
7077;DHT22;3579;48.956;9.154;2023-11-21T00:16:37;17.40;65.00
7077;DHT22;3579;48.956;9.154;2023-11-21T00:19:03;17.40;65.50
7077;DHT22;3579;48.956;9.154;2023-11-21T00:21:29;17.40;65.50
7077;DHT22;3579;48.956;9.154;2023-11-21T00:23:55;17.40;65.00
7077;DHT22;3579;48.956;9.154;2023-11-21T00:26:21;17.40;65.60
7077;DHT22;3579;48.956;9.154;2023-11-21T00:28:47;17.40;65.60
7077;DHT22;3579;48.956;9.154;2023-11-21T00:31:13;17.30;65.50
7077;DHT22;3579;48.956;9.154;2023-11-21T00:33:39;17.30;65.50
7077;DHT22;3579;48.956;9.154;2023-11-21T00:36:05;17.30;65.50
7077;DHT22;3579;48.956;9.154;2023-11-21T00:38:36;17.30;65.60
7077;DHT22;3579;48.956;9.154;2023-11-21T00:41:02;17.30;65.60
7077;DHT22;3579;48.956;9.154;2023-11-21T00:43:28;17.30;65.60
7077;DHT22;3579;48.956;9.154;2023-11-21T00:45:54;17.30;65.70
7077;DHT22;3579;48.956;9.154;2023-11-21T00:48:20;17.30;65.60
7077;DHT22;3579;48.956;9.154;2023-11-21T00:50:46;17.30;65.60
7077;DHT22;3579;48.956;9.154;2023-11-21T00:53:12;17.30;65.60
7077;DHT22;3579;48.956;9.154;2023-11-21T00:55:38;17.20;65.50
7077;DHT22;3579;48.956;9.154;2023-11-21T00:58:07;17.20;65.00
7077;DHT22;3579;48.956;9.154;2023-11-21T01:00:33;17.20;65.60
7077;DHT22;3579;48.956;9.154;2023-11-21T01:02:59;17.20;65.70
7077;DHT22;3579;48.956;9.154;2023-11-21T01:05:26;17.90;66.30
7077;DHT22;3579;48.956;9.154;2023-11-21T01:07:52;17.20;65.60
7077;DHT22;3579;48.956;9.154;2023-11-21T01:10:18;17.20;66.30
7077;DHT22;3579;48.956;9.154;2023-11-21T01:12:45;17.20;66.40
7077;DHT22;3579;48.956;9.154;2023-11-21T01:15:11;17.20;65.70
7077;DHT22;3579;48.956;9.154;2023-11-21T01:17:38;17.20;65.70
7077;DHT22;3579;48.956;9.154;2023-11-21T01:20:04;17.20;66.40
7077;DHT22;3579;48.956;9.154;2023-11-21T01:22:36;17.10;65.20
7077;DHT22;3579;48.956;9.154;2023-11-21T01:25:03;17.10;65.70
7077;DHT22;3579;48.956;9.154;2023-11-21T01:27:36;17.10;65.70
7077;DHT22;3579;48.956;9.154;2023-11-21T01:30:03;17.10;65.70
7077;DHT22;3579;48.956;9.154;2023-11-21T01:32:30;17.10;65.70
7077;DHT22;3579;48.956;9.154;2023-11-21T01:34:56;17.10;65.70
7077;DHT22;3579;48.956;9.154;2023-11-21T01:37:22;17.10;65.80
7077;DHT22;3579;48.956;9.154;2023-11-21T01:39:49;17.10;65.70
7077;DHT22;3579;48.956;9.154;2023-11-21T01:42:15;17.10;65.70
7077;DHT22;3579;48.956;9.154;2023-11-21T01:44:41;17.10;65.80
7077;DHT22;3579;48.956;9.154;2023-11-21T01:47:08;17.10;65.80
7077;DHT22;3579;48.956;9.154;2023-11-21T01:49:35;17.00;65.10
7077;DHT22;3579;48.956;9.154;2023-11-21T01:52:02;17.00;65.20
7077;DHT22;3579;48.956;9.154;2023-11-21T01:54:30;17.00;65.70
7077;DHT22;3579;48.956;9.154;2023-11-21T01:57:00;17.00;65.70
7077;DHT22;3579;48.956;9.154;2023-11-21T01:59:36;17.00;65.10
7077;DHT22;3579;48.956;9.154;2023-11-21T02:02:06;17.00;65.20
7077;DHT22;3579;48.956;9.154;2023-11-21T02:04:35;17.00;65.80
7077;DHT22;3579;48.956;9.154;2023-11-21T02:07:05;17.00;65.80
7077;DHT22;3579;48.956;9.154;2023-11-21T02:09:34;17.00;65.80
7077;DHT22;3579;48.956;9.154;2023-11-21T02:12:02;17.00;65.30
7077;DHT22;3579;48.956;9.154;2023-11-21T02:14:28;17.00;65.90
7077;DHT22;3579;48.956;9.154;2023-11-21T02:16:55;16.90;65.70
7077;DHT22;3579;48.956;9.154;2023-11-21T02:19:23;16.90;65.20
7077;DHT22;3579;48.956;9.154;2023-11-21T02:21:52;16.90;65.80
7077;DHT22;3579;48.956;9.154;2023-11-21T02:24:22;16.90;65.80
7077;DHT22;3579;48.956;9.154;2023-11-21T02:26:49;16.90;65.80
7077;DHT22;3579;48.956;9.154;2023-11-21T02:29:21;17.00;65.90
7077;DHT22;3579;48.956;9.154;2023-11-21T02:31:56;16.90;65.80
7077;DHT22;3579;48.956;9.154;2023-11-21T02:34:22;16.80;65.70
7077;DHT22;3579;48.956;9.154;2023-11-21T02:36:50;16.80;65.80
7077;DHT22;3579;48.956;9.154;2023-11-21T02:39:17;16.40;65.40
7077;DHT22;3579;48.956;9.154;2023-11-21T02:41:44;16.90;65.30
7077;DHT22;3579;48.956;9.154;2023-11-21T02:44:10;16.80;65.80
7077;DHT22;3579;48.956;9.154;2023-11-21T02:46:37;16.80;65.80
7077;DHT22;3579;48.956;9.154;2023-11-21T02:49:03;16.80;66.50
7077;DHT22;3579;48.956;9.154;2023-11-21T02:51:30;16.80;65.80
7077;DHT22;3579;48.956;9.154;2023-11-21T02:53:56;16.80;65.80
7077;DHT22;3579;48.956;9.154;2023-11-21T02:56:26;16.80;65.80
7077;DHT22;3579;48.956;9.154;2023-11-21T02:58:55;16.70;65.80
7077;DHT22;3579;48.956;9.154;2023-11-21T03:01:21;16.80;65.90
7077;DHT22;3579;48.956;9.154;2023-11-21T03:03:47;16.80;65.90
7077;DHT22;3579;48.956;9.154;2023-11-21T03:06:18;16.80;66.00
7077;DHT22;3579;48.956;9.154;2023-11-21T03:08:44;16.80;66.00
7077;DHT22;3579;48.956;9.154;2023-11-21T03:11:10;16.80;65.40
7077;DHT22;3579;48.956;9.154;2023-11-21T03:13:36;16.80;65.40
7077;DHT22;3579;48.956;9.154;2023-11-21T03:16:02;16.80;65.40
7077;DHT22;3579;48.956;9.154;2023-11-21T03:18:28;16.80;65.40
7077;DHT22;3579;48.956;9.154;2023-11-21T03:20:55;16.80;66.00
7077;DHT22;3579;48.956;9.154;2023-11-21T03:23:23;16.80;65.30
7077;DHT22;3579;48.956;9.154;2023-11-21T03:25:49;16.80;65.80
7077;DHT22;3579;48.956;9.154;2023-11-21T03:28:15;16.80;65.30
7077;DHT22;3579;48.956;9.154;2023-11-21T03:30:41;16.90;65.40
7077;DHT22;3579;48.956;9.154;2023-11-21T03:33:07;16.90;66.00
7077;DHT22;3579;48.956;9.154;2023-11-21T03:35:33;16.90;65.90
7077;DHT22;3579;48.956;9.154;2023-11-21T03:37:59;16.90;65.90
7077;DHT22;3579;48.956;9.154;2023-11-21T03:40:25;16.90;65.90
7077;DHT22;3579;48.956;9.154;2023-11-21T03:42:51;17.00;65.50
7077;DHT22;3579;48.956;9.154;2023-11-21T03:45:17;17.00;65.50
7077;DHT22;3579;48.956;9.154;2023-11-21T03:47:43;16.90;66.00
7077;DHT22;3579;48.956;9.154;2023-11-21T03:50:09;17.00;66.10
7077;DHT22;3579;48.956;9.154;2023-11-21T03:52:35;17.00;66.10
7077;DHT22;3579;48.956;9.154;2023-11-21T03:55:02;17.00;66.10
7077;DHT22;3579;48.956;9.154;2023-11-21T03:57:28;17.00;66.10
7077;DHT22;3579;48.956;9.154;2023-11-21T03:59:54;17.00;66.10
7077;DHT22;3579;48.956;9.154;2023-11-21T04:02:20;17.00;66.10
7077;DHT22;3579;48.956;9.154;2023-11-21T04:04:46;17.00;66.10
7077;DHT22;3579;48.956;9.154;2023-11-21T04:07:12;17.00;66.00
7077;DHT22;3579;48.956;9.154;2023-11-21T04:09:39;17.10;66.10
7077;DHT22;3579;48.956;9.154;2023-11-21T04:12:07;17.10;65.50
7077;DHT22;3579;48.956;9.154;2023-11-21T04:14:34;17.10;66.00
7077;DHT22;3579;48.956;9.154;2023-11-21T04:17:00;17.20;66.00
7077;DHT22;3579;48.956;9.154;2023-11-21T04:19:26;17.20;66.00
7077;DHT22;3579;48.956;9.154;2023-11-21T04:21:53;17.20;65.90
7077;DHT22;3579;48.956;9.154;2023-11-21T04:24:18;17.20;65.90
7077;DHT22;3579;48.956;9.154;2023-11-21T04:26:45;17.20;66.20
7077;DHT22;3579;48.956;9.154;2023-11-21T04:29:11;17.30;65.80
7077;DHT22;3579;48.956;9.154;2023-11-21T04:31:37;17.30;66.50
7077;DHT22;3579;48.956;9.154;2023-11-21T04:34:03;17.30;65.70
7077;DHT22;3579;48.956;9.154;2023-11-21T04:36:30;17.30;65.60
7077;DHT22;3579;48.956;9.154;2023-11-21T04:38:59;17.40;65.60
7077;DHT22;3579;48.956;9.154;2023-11-21T04:41:26;17.30;65.50
7077;DHT22;3579;48.956;9.154;2023-11-21T04:43:52;17.40;65.60
7077;DHT22;3579;48.956;9.154;2023-11-21T04:46:18;17.40;65.00
7077;DHT22;3579;48.956;9.154;2023-11-21T04:48:46;17.40;65.60
7077;DHT22;3579;48.956;9.154;2023-11-21T04:51:14;17.40;64.90
7077;DHT22;3579;48.956;9.154;2023-11-21T04:53:40;17.50;65.50
7077;DHT22;3579;48.956;9.154;2023-11-21T04:56:06;17.50;65.40
7077;DHT22;3579;48.956;9.154;2023-11-21T04:58:32;17.40;65.40
7077;DHT22;3579;48.956;9.154;2023-11-21T05:00:58;17.50;65.50
7077;DHT22;3579;48.956;9.154;2023-11-21T05:03:24;17.50;65.50
7077;DHT22;3579;48.956;9.154;2023-11-21T05:05:50;17.50;65.60
7077;DHT22;3579;48.956;9.154;2023-11-21T05:08:16;17.50;65.60
7077;DHT22;3579;48.956;9.154;2023-11-21T05:10:43;17.50;65.60
7077;DHT22;3579;48.956;9.154;2023-11-21T05:13:09;17.50;65.70
7077;DHT22;3579;48.956;9.154;2023-11-21T05:15:36;17.50;65.80
7077;DHT22;3579;48.956;9.154;2023-11-21T05:18:04;17.40;65.80
7077;DHT22;3579;48.956;9.154;2023-11-21T05:20:31;17.40;65.90
7077;DHT22;3579;48.956;9.154;2023-11-21T05:22:57;17.40;66.00
7077;DHT22;3579;48.956;9.154;2023-11-21T05:25:24;17.40;66.10
7077;DHT22;3579;48.956;9.154;2023-11-21T05:27:50;17.30;65.50
7077;DHT22;3579;48.956;9.154;2023-11-21T05:30:16;17.30;66.10
7077;DHT22;3579;48.956;9.154;2023-11-21T05:32:42;17.30;66.20
7077;DHT22;3579;48.956;9.154;2023-11-21T05:35:09;17.30;65.70
7077;DHT22;3579;48.956;9.154;2023-11-21T05:37:38;17.30;66.20
7077;DHT22;3579;48.956;9.154;2023-11-21T05:40:08;17.20;66.20
7077;DHT22;3579;48.956;9.154;2023-11-21T05:42:35;17.20;66.20
7077;DHT22;3579;48.956;9.154;2023-11-21T05:45:01;17.20;66.30
7077;DHT22;3579;48.956;9.154;2023-11-21T05:47:46;17.20;66.30
7077;DHT22;3579;48.956;9.154;2023-11-21T05:50:14;17.20;66.30
7077;DHT22;3579;48.956;9.154;2023-11-21T05:52:45;17.20;66.30
7077;DHT22;3579;48.956;9.154;2023-11-21T05:55:11;17.20;66.40
7077;DHT22;3579;48.956;9.154;2023-11-21T05:57:38;17.20;66.30
7077;DHT22;3579;48.956;9.154;2023-11-21T06:00:09;17.20;66.30
7077;DHT22;3579;48.956;9.154;2023-11-21T06:02:40;17.20;66.30
7077;DHT22;3579;48.956;9.154;2023-11-21T06:05:07;17.20;66.30
7077;DHT22;3579;48.956;9.154;2023-11-21T06:07:34;17.20;66.30
7077;DHT22;3579;48.956;9.154;2023-11-21T06:10:07;17.20;66.30
7077;DHT22;3579;48.956;9.154;2023-11-21T06:12:37;17.20;66.20
7077;DHT22;3579;48.956;9.154;2023-11-21T06:15:04;17.20;65.70
7077;DHT22;3579;48.956;9.154;2023-11-21T06:17:31;17.20;66.20
7077;DHT22;3579;48.956;9.154;2023-11-21T06:19:57;17.30;66.20
7077;DHT22;3579;48.956;9.154;2023-11-21T06:22:23;17.30;66.20
7077;DHT22;3579;48.956;9.154;2023-11-21T06:24:50;17.30;66.20
7077;DHT22;3579;48.956;9.154;2023-11-21T06:27:16;17.30;66.20
7077;DHT22;3579;48.956;9.154;2023-11-21T06:29:42;17.30;66.20
7077;DHT22;3579;48.956;9.154;2023-11-21T06:32:08;17.30;66.20
7077;DHT22;3579;48.956;9.154;2023-11-21T06:34:34;17.30;66.10
7077;DHT22;3579;48.956;9.154;2023-11-21T06:37:00;17.30;66.20
7077;DHT22;3579;48.956;9.154;2023-11-21T06:39:26;17.30;66.20
7077;DHT22;3579;48.956;9.154;2023-11-21T06:41:53;17.30;66.20
7077;DHT22;3579;48.956;9.154;2023-11-21T06:44:20;17.30;66.30
7077;DHT22;3579;48.956;9.154;2023-11-21T06:46:46;17.30;65.80
7077;DHT22;3579;48.956;9.154;2023-11-21T06:49:12;17.30;66.30
7077;DHT22;3579;48.956;9.154;2023-11-21T06:51:38;17.20;66.30
7077;DHT22;3579;48.956;9.154;2023-11-21T06:54:05;17.20;66.30
7077;DHT22;3579;48.956;9.154;2023-11-21T06:56:31;17.20;66.30
7077;DHT22;3579;48.956;9.154;2023-11-21T06:58:58;17.20;66.40
7077;DHT22;3579;48.956;9.154;2023-11-21T07:01:24;17.20;66.40
7077;DHT22;3579;48.956;9.154;2023-11-21T07:03:50;17.20;66.40
7077;DHT22;3579;48.956;9.154;2023-11-21T07:06:16;17.20;66.40
7077;DHT22;3579;48.956;9.154;2023-11-21T07:08:42;17.20;66.40
7077;DHT22;3579;48.956;9.154;2023-11-21T07:11:08;17.20;66.00
7077;DHT22;3579;48.956;9.154;2023-11-21T07:13:34;17.20;66.50
7077;DHT22;3579;48.956;9.154;2023-11-21T07:16:01;17.20;67.20
7077;DHT22;3579;48.956;9.154;2023-11-21T07:18:27;17.20;66.50
7077;DHT22;3579;48.956;9.154;2023-11-21T07:20:53;17.20;66.50
7077;DHT22;3579;48.956;9.154;2023-11-21T07:23:19;17.10;66.50
7077;DHT22;3579;48.956;9.154;2023-11-21T07:25:45;17.20;66.40
7077;DHT22;3579;48.956;9.154;2023-11-21T07:28:11;17.10;65.90
7077;DHT22;3579;48.956;9.154;2023-11-21T07:30:37;16.30;61.90
7077;DHT22;3579;48.956;9.154;2023-11-21T07:33:03;16.40;64.60
7077;DHT22;3579;48.956;9.154;2023-11-21T07:35:29;16.70;64.90
7077;DHT22;3579;48.956;9.154;2023-11-21T07:37:55;16.70;65.40
7077;DHT22;3579;48.956;9.154;2023-11-21T07:40:21;16.90;66.10
7077;DHT22;3579;48.956;9.154;2023-11-21T07:42:48;17.20;66.60
7077;DHT22;3579;48.956;9.154;2023-11-21T07:45:15;17.50;66.80
7077;DHT22;3579;48.956;9.154;2023-11-21T07:47:41;17.60;66.60
7077;DHT22;3579;48.956;9.154;2023-11-21T07:50:08;17.80;66.50
7077;DHT22;3579;48.956;9.154;2023-11-21T07:52:34;17.90;66.60
7077;DHT22;3579;48.956;9.154;2023-11-21T07:55:02;18.10;65.70
7077;DHT22;3579;48.956;9.154;2023-11-21T07:57:28;18.20;66.30
7077;DHT22;3579;48.956;9.154;2023-11-21T07:59:54;18.30;66.20
7077;DHT22;3579;48.956;9.154;2023-11-21T08:02:21;18.50;66.50
7077;DHT22;3579;48.956;9.154;2023-11-21T08:04:47;18.60;66.10
7077;DHT22;3579;48.956;9.154;2023-11-21T08:07:17;18.70;66.10
7077;DHT22;3579;48.956;9.154;2023-11-21T08:09:43;18.80;66.00
7077;DHT22;3579;48.956;9.154;2023-11-21T08:12:10;19.10;66.00
7077;DHT22;3579;48.956;9.154;2023-11-21T08:14:36;19.00;65.80
7077;DHT22;3579;48.956;9.154;2023-11-21T08:17:04;19.10;65.80
7077;DHT22;3579;48.956;9.154;2023-11-21T08:19:30;19.20;66.30
7077;DHT22;3579;48.956;9.154;2023-11-21T08:21:57;19.30;65.60
7077;DHT22;3579;48.956;9.154;2023-11-21T08:24:25;19.40;65.60
7077;DHT22;3579;48.956;9.154;2023-11-21T08:26:51;19.50;65.30
7077;DHT22;3579;48.956;9.154;2023-11-21T08:29:18;19.60;65.20
7077;DHT22;3579;48.956;9.154;2023-11-21T08:31:44;19.80;64.90
7077;DHT22;3579;48.956;9.154;2023-11-21T08:34:13;19.80;65.10
7077;DHT22;3579;48.956;9.154;2023-11-21T08:36:43;20.00;65.20
7077;DHT22;3579;48.956;9.154;2023-11-21T08:39:09;19.90;65.10
7077;DHT22;3579;48.956;9.154;2023-11-21T08:41:39;20.00;65.70
7077;DHT22;3579;48.956;9.154;2023-11-21T08:44:05;20.00;65.50
7077;DHT22;3579;48.956;9.154;2023-11-21T08:46:33;19.90;65.50
7077;DHT22;3579;48.956;9.154;2023-11-21T08:49:03;20.00;65.60
7077;DHT22;3579;48.956;9.154;2023-11-21T08:51:29;19.90;65.70
7077;DHT22;3579;48.956;9.154;2023-11-21T08:53:55;20.00;65.80
7077;DHT22;3579;48.956;9.154;2023-11-21T08:56:25;20.00;65.80
7077;DHT22;3579;48.956;9.154;2023-11-21T08:58:51;20.00;65.70
7077;DHT22;3579;48.956;9.154;2023-11-21T09:01:18;20.00;65.80
7077;DHT22;3579;48.956;9.154;2023-11-21T09:03:44;20.00;65.80
7077;DHT22;3579;48.956;9.154;2023-11-21T09:06:11;20.10;65.90
7077;DHT22;3579;48.956;9.154;2023-11-21T09:08:37;20.10;65.80
7077;DHT22;3579;48.956;9.154;2023-11-21T09:11:04;20.10;65.80
7077;DHT22;3579;48.956;9.154;2023-11-21T09:13:30;20.10;65.70
7077;DHT22;3579;48.956;9.154;2023-11-21T09:15:56;20.10;65.50
7077;DHT22;3579;48.956;9.154;2023-11-21T09:18:22;20.10;65.60
7077;DHT22;3579;48.956;9.154;2023-11-21T09:20:48;20.20;66.10
7077;DHT22;3579;48.956;9.154;2023-11-21T09:23:14;20.20;65.50
7077;DHT22;3579;48.956;9.154;2023-11-21T09:25:41;20.20;65.50
7077;DHT22;3579;48.956;9.154;2023-11-21T09:28:08;20.20;65.50
7077;DHT22;3579;48.956;9.154;2023-11-21T09:30:35;20.30;65.60
7077;DHT22;3579;48.956;9.154;2023-11-21T09:33:02;20.30;65.70
7077;DHT22;3579;48.956;9.154;2023-11-21T09:35:29;20.30;65.60
7077;DHT22;3579;48.956;9.154;2023-11-21T09:37:55;20.30;65.60
7077;DHT22;3579;48.956;9.154;2023-11-21T09:40:22;20.40;65.60
7077;DHT22;3579;48.956;9.154;2023-11-21T09:42:55;20.40;65.70
7077;DHT22;3579;48.956;9.154;2023-11-21T09:45:26;20.40;65.60
7077;DHT22;3579;48.956;9.154;2023-11-21T09:47:54;20.40;65.60
7077;DHT22;3579;48.956;9.154;2023-11-21T09:50:24;20.40;65.60
7077;DHT22;3579;48.956;9.154;2023-11-21T09:53:13;20.40;65.50
7077;DHT22;3579;48.956;9.154;2023-11-21T09:55:44;20.40;65.60
7077;DHT22;3579;48.956;9.154;2023-11-21T09:58:10;20.50;65.70
7077;DHT22;3579;48.956;9.154;2023-11-21T10:00:41;20.50;65.70
7077;DHT22;3579;48.956;9.154;2023-11-21T10:03:08;20.50;65.60
7077;DHT22;3579;48.956;9.154;2023-11-21T10:05:35;20.50;65.50
7077;DHT22;3579;48.956;9.154;2023-11-21T10:08:12;20.50;65.60
7077;DHT22;3579;48.956;9.154;2023-11-21T10:10:43;20.60;65.70
7077;DHT22;3579;48.956;9.154;2023-11-21T10:13:12;20.60;65.70
7077;DHT22;3579;48.956;9.154;2023-11-21T10:15:38;20.60;65.60
7077;DHT22;3579;48.956;9.154;2023-11-21T10:18:07;20.60;65.60
7077;DHT22;3579;48.956;9.154;2023-11-21T10:20:35;20.70;65.70
7077;DHT22;3579;48.956;9.154;2023-11-21T10:23:03;20.70;65.70
7077;DHT22;3579;48.956;9.154;2023-11-21T10:25:30;20.70;65.60
7077;DHT22;3579;48.956;9.154;2023-11-21T10:28:02;20.70;65.60
7077;DHT22;3579;48.956;9.154;2023-11-21T10:30:35;20.80;65.60
7077;DHT22;3579;48.956;9.154;2023-11-21T10:33:07;20.80;66.20
7077;DHT22;3579;48.956;9.154;2023-11-21T10:35:43;20.90;65.70
7077;DHT22;3579;48.956;9.154;2023-11-21T10:38:28;20.90;65.60
7077;DHT22;3579;48.956;9.154;2023-11-21T10:40:56;20.90;65.70
7077;DHT22;3579;48.956;9.154;2023-11-21T10:43:25;20.90;65.80
7077;DHT22;3579;48.956;9.154;2023-11-21T10:45:51;20.90;65.60
7077;DHT22;3579;48.956;9.154;2023-11-21T10:48:17;20.80;64.90
7077;DHT22;3579;48.956;9.154;2023-11-21T10:50:47;20.80;65.10
7077;DHT22;3579;48.956;9.154;2023-11-21T10:53:13;20.90;65.20
7077;DHT22;3579;48.956;9.154;2023-11-21T10:55:39;20.90;65.00
7077;DHT22;3579;48.956;9.154;2023-11-21T10:58:06;20.90;65.00
7077;DHT22;3579;48.956;9.154;2023-11-21T11:00:33;21.00;65.00
7077;DHT22;3579;48.956;9.154;2023-11-21T11:03:00;21.00;64.90
7077;DHT22;3579;48.956;9.154;2023-11-21T11:05:28;21.00;64.90
7077;DHT22;3579;48.956;9.154;2023-11-21T11:08:04;21.00;65.00
7077;DHT22;3579;48.956;9.154;2023-11-21T11:10:30;21.00;64.90
7077;DHT22;3579;48.956;9.154;2023-11-21T11:12:57;21.10;65.00
7077;DHT22;3579;48.956;9.154;2023-11-21T11:15:24;21.00;64.90
7077;DHT22;3579;48.956;9.154;2023-11-21T11:17:50;21.10;65.20
7077;DHT22;3579;48.956;9.154;2023-11-21T11:20:17;21.10;65.20
7077;DHT22;3579;48.956;9.154;2023-11-21T11:25:53;21.10;65.20
7077;DHT22;3579;48.956;9.154;2023-11-21T11:28:43;21.10;65.10
7077;DHT22;3579;48.956;9.154;2023-11-21T11:34:28;21.20;65.00
7077;DHT22;3579;48.956;9.154;2023-11-21T11:37:03;21.20;65.00
7077;DHT22;3579;48.956;9.154;2023-11-21T11:39:34;21.20;65.00
7077;DHT22;3579;48.956;9.154;2023-11-21T11:42:07;21.20;65.10
7077;DHT22;3579;48.956;9.154;2023-11-21T11:44:59;19.80;63.50
7077;DHT22;3579;48.956;9.154;2023-11-21T11:47:33;21.30;64.90
7077;DHT22;3579;48.956;9.154;2023-11-21T11:50:11;21.30;65.00
7077;DHT22;3579;48.956;9.154;2023-11-21T11:55:13;21.30;64.80
7077;DHT22;3579;48.956;9.154;2023-11-21T11:57:42;21.40;64.90
7077;DHT22;3579;48.956;9.154;2023-11-21T12:00:10;21.40;65.20
7077;DHT22;3579;48.956;9.154;2023-11-21T12:02:40;21.40;65.20
7077;DHT22;3579;48.956;9.154;2023-11-21T12:05:15;21.40;65.20
7077;DHT22;3579;48.956;9.154;2023-11-21T12:08:00;21.40;65.10
7077;DHT22;3579;48.956;9.154;2023-11-21T12:10:28;21.40;65.10
7077;DHT22;3579;48.956;9.154;2023-11-21T12:12:57;21.40;65.00
7077;DHT22;3579;48.956;9.154;2023-11-21T12:15:24;21.40;65.10
7077;DHT22;3579;48.956;9.154;2023-11-21T12:17:57;21.40;65.10
7077;DHT22;3579;48.956;9.154;2023-11-21T12:20:27;21.40;65.00
7077;DHT22;3579;48.956;9.154;2023-11-21T12:22:55;21.40;65.00
7077;DHT22;3579;48.956;9.154;2023-11-21T12:25:26;21.20;61.70
7077;DHT22;3579;48.956;9.154;2023-11-21T12:31:11;21.20;63.60
7077;DHT22;3579;48.956;9.154;2023-11-21T12:33:37;21.10;62.90
7077;DHT22;3579;48.956;9.154;2023-11-21T12:36:04;21.20;63.50
7077;DHT22;3579;48.956;9.154;2023-11-21T12:38:35;21.20;63.60
7077;DHT22;3579;48.956;9.154;2023-11-21T12:41:04;21.30;63.80
7077;DHT22;3579;48.956;9.154;2023-11-21T12:43:32;21.30;63.90
7077;DHT22;3579;48.956;9.154;2023-11-21T12:46:07;21.30;62.80
7077;DHT22;3579;48.956;9.154;2023-11-21T12:48:38;20.60;58.30
7077;DHT22;3579;48.956;9.154;2023-11-21T12:51:10;20.40;60.20
7077;DHT22;3579;48.956;9.154;2023-11-21T12:53:44;20.70;61.20
7077;DHT22;3579;48.956;9.154;2023-11-21T12:56:11;20.80;61.20
7077;DHT22;3579;48.956;9.154;2023-11-21T12:58:39;20.90;61.40
7077;DHT22;3579;48.956;9.154;2023-11-21T13:01:06;21.00;61.60
7077;DHT22;3579;48.956;9.154;2023-11-21T13:03:38;21.10;61.60
7077;DHT22;3579;48.956;9.154;2023-11-21T13:06:06;21.10;61.50
7077;DHT22;3579;48.956;9.154;2023-11-21T13:08:33;21.20;61.70
7077;DHT22;3579;48.956;9.154;2023-11-21T13:11:00;21.20;61.90
7077;DHT22;3579;48.956;9.154;2023-11-21T13:13:29;21.20;62.00
7077;DHT22;3579;48.956;9.154;2023-11-21T13:18:27;21.10;60.90
7077;DHT22;3579;48.956;9.154;2023-11-21T13:20:55;21.00;61.60
7077;DHT22;3579;48.956;9.154;2023-11-21T13:23:21;21.10;61.90
7077;DHT22;3579;48.956;9.154;2023-11-21T13:25:48;21.20;62.20
7077;DHT22;3579;48.956;9.154;2023-11-21T13:28:16;21.20;62.10
7077;DHT22;3579;48.956;9.154;2023-11-21T13:30:44;21.30;62.20
7077;DHT22;3579;48.956;9.154;2023-11-21T13:33:10;21.30;62.20
7077;DHT22;3579;48.956;9.154;2023-11-21T13:35:44;21.30;62.20
7077;DHT22;3579;48.956;9.154;2023-11-21T13:38:18;21.30;62.30
7077;DHT22;3579;48.956;9.154;2023-11-21T13:40:50;21.40;62.40
7077;DHT22;3579;48.956;9.154;2023-11-21T13:43:21;21.40;62.40
7077;DHT22;3579;48.956;9.154;2023-11-21T13:45:49;21.40;62.60
7077;DHT22;3579;48.956;9.154;2023-11-21T13:48:24;21.40;62.80
7077;DHT22;3579;48.956;9.154;2023-11-21T13:51:19;21.40;62.70
7077;DHT22;3579;48.956;9.154;2023-11-21T13:53:47;21.40;62.90
7077;DHT22;3579;48.956;9.154;2023-11-21T13:56:16;21.50;63.70
7077;DHT22;3579;48.956;9.154;2023-11-21T13:58:52;21.50;62.90
7077;DHT22;3579;48.956;9.154;2023-11-21T14:01:20;21.50;63.10
7077;DHT22;3579;48.956;9.154;2023-11-21T14:04:00;21.50;63.00
7077;DHT22;3579;48.956;9.154;2023-11-21T14:06:37;21.50;63.00
7077;DHT22;3579;48.956;9.154;2023-11-21T14:09:18;21.50;63.10
7077;DHT22;3579;48.956;9.154;2023-11-21T14:11:55;21.50;63.10
7077;DHT22;3579;48.956;9.154;2023-11-21T14:14:24;21.50;63.10
7077;DHT22;3579;48.956;9.154;2023-11-21T14:16:59;21.50;63.20
7077;DHT22;3579;48.956;9.154;2023-11-21T14:19:26;21.50;63.20
7077;DHT22;3579;48.956;9.154;2023-11-21T14:21:58;21.60;63.20
7077;DHT22;3579;48.956;9.154;2023-11-21T14:24:24;21.60;63.30
7077;DHT22;3579;48.956;9.154;2023-11-21T14:26:51;21.60;63.30
7077;DHT22;3579;48.956;9.154;2023-11-21T14:29:18;21.60;63.30
7077;DHT22;3579;48.956;9.154;2023-11-21T14:31:46;21.60;63.30
7077;DHT22;3579;48.956;9.154;2023-11-21T14:34:13;21.60;63.20
7077;DHT22;3579;48.956;9.154;2023-11-21T14:36:41;21.70;63.50
7077;DHT22;3579;48.956;9.154;2023-11-21T14:39:07;21.70;63.60
7077;DHT22;3579;48.956;9.154;2023-11-21T14:41:37;21.70;63.60
7077;DHT22;3579;48.956;9.154;2023-11-21T14:44:05;21.70;64.40
7077;DHT22;3579;48.956;9.154;2023-11-21T14:46:33;21.80;63.90
7077;DHT22;3579;48.956;9.154;2023-11-21T14:49:01;21.80;64.10
7077;DHT22;3579;48.956;9.154;2023-11-21T14:51:59;21.80;64.20
7077;DHT22;3579;48.956;9.154;2023-11-21T14:54:30;21.90;64.40
7077;DHT22;3579;48.956;9.154;2023-11-21T14:57:13;21.90;64.40
7077;DHT22;3579;48.956;9.154;2023-11-21T14:59:45;21.90;64.50
7077;DHT22;3579;48.956;9.154;2023-11-21T15:02:18;21.90;64.30
7077;DHT22;3579;48.956;9.154;2023-11-21T15:05:07;21.90;64.50
7077;DHT22;3579;48.956;9.154;2023-11-21T15:07:39;21.80;64.50
7077;DHT22;3579;48.956;9.154;2023-11-21T15:10:06;21.80;64.50
7077;DHT22;3579;48.956;9.154;2023-11-21T15:12:36;21.80;64.40
7077;DHT22;3579;48.956;9.154;2023-11-21T15:15:06;21.80;64.40
7077;DHT22;3579;48.956;9.154;2023-11-21T15:17:36;21.80;64.30
7077;DHT22;3579;48.956;9.154;2023-11-21T15:20:03;21.70;64.20
7077;DHT22;3579;48.956;9.154;2023-11-21T15:22:32;21.80;64.20
7077;DHT22;3579;48.956;9.154;2023-11-21T15:24:58;21.80;64.10
7077;DHT22;3579;48.956;9.154;2023-11-21T15:27:27;21.70;64.00
7077;DHT22;3579;48.956;9.154;2023-11-21T15:29:56;21.80;64.00
7077;DHT22;3579;48.956;9.154;2023-11-21T15:32:23;21.80;63.40
7077;DHT22;3579;48.956;9.154;2023-11-21T15:34:50;21.70;63.90
7077;DHT22;3579;48.956;9.154;2023-11-21T15:37:16;21.80;63.90
7077;DHT22;3579;48.956;9.154;2023-11-21T15:39:42;21.70;63.20
7077;DHT22;3579;48.956;9.154;2023-11-21T15:42:09;21.70;63.70
7077;DHT22;3579;48.956;9.154;2023-11-21T15:44:36;21.80;63.80
7077;DHT22;3579;48.956;9.154;2023-11-21T15:47:03;21.80;63.80
7077;DHT22;3579;48.956;9.154;2023-11-21T15:49:33;21.80;63.70
7077;DHT22;3579;48.956;9.154;2023-11-21T15:52:05;21.80;63.00
7077;DHT22;3579;48.956;9.154;2023-11-21T15:54:32;21.70;62.70
7077;DHT22;3579;48.956;9.154;2023-11-21T15:57:00;21.60;60.30
7077;DHT22;3579;48.956;9.154;2023-11-21T15:59:27;21.40;60.10
7077;DHT22;3579;48.956;9.154;2023-11-21T16:01:57;21.40;60.60
7077;DHT22;3579;48.956;9.154;2023-11-21T16:04:23;21.40;60.10
7077;DHT22;3579;48.956;9.154;2023-11-21T16:06:53;21.30;60.10
7077;DHT22;3579;48.956;9.154;2023-11-21T16:09:19;21.20;60.00
7077;DHT22;3579;48.956;9.154;2023-11-21T16:11:50;21.20;60.00
7077;DHT22;3579;48.956;9.154;2023-11-21T16:14:24;21.20;60.10
7077;DHT22;3579;48.956;9.154;2023-11-21T16:16:55;21.10;60.10
7077;DHT22;3579;48.956;9.154;2023-11-21T16:19:23;21.10;60.20
7077;DHT22;3579;48.956;9.154;2023-11-21T16:21:49;21.20;60.90
7077;DHT22;3579;48.956;9.154;2023-11-21T16:24:15;21.20;60.50